DAAE

Soummam Airport

Béjaïa, Algeria
METAR DAAE 230740Z 27005KT 9999 FEW020 FEW023CB 07/05 Q1005
Observed Flight Rules
Feb-23 @ 07:40 UTC (23 minutes ago) Visual Flight Rules
Wind Visibility Clouds
270° at 5 knots 10,000+ meters
  • Few at 2,000' AGL
  • Few at 2,300' AGL
Temperatures Readings
Current 7°C / 45°F
Dewpoint 5°C / 41°F
Humidity 87%
Altimeter 29.68" Hg
Pressure 1005 hPa
Elevation 2
METAR DAAE 230740Z 27005KT 9999 FEW020 FEW023CB 07/05 Q1005
Observed Flight Rules
Feb-23 @ 07:40 UTC
(23 minutes ago)
VFR
Wind Visibility
270° at 5 knots 10,000+ meters
Clouds
  • Few at 2,000' AGL
  • Few at 2,300' AGL
Temperature Dewpoint
7°C / 45°F 5°C / 41°F
Humidity Altimeter Pressure
87% 29.68" Hg 1005 hPa